sensor_id;sensor_type;location;lat;lon;timestamp;pressure;altitude;pressure_sealevel;temperature;humidity
22025;BME280;11176;51.448;6.650;2023-04-03T00:00:44;42407.94;;;-141.29;100.00
22025;BME280;11176;51.448;6.650;2023-04-03T00:03:10;42413.94;;;-141.29;100.00
22025;BME280;11176;51.448;6.650;2023-04-03T00:05:37;42433.91;;;-141.29;100.00
22025;BME280;11176;51.448;6.650;2023-04-03T00:08:03;42401.94;;;-141.29;100.00
22025;BME280;11176;51.448;6.650;2023-04-03T00:10:34;42413.94;;;-141.29;100.00
22025;BME280;11176;51.448;6.650;2023-04-03T00:13:01;42405.94;;;-141.29;100.00
22025;BME280;11176;51.448;6.650;2023-04-03T00:15:28;42425.91;;;-141.29;100.00
22025;BME280;11176;51.448;6.650;2023-04-03T00:17:54;42411.94;;;-141.29;100.00
22025;BME280;11176;51.448;6.650;2023-04-03T00:20:21;42405.94;;;-141.29;100.00
22025;BME280;11176;51.448;6.650;2023-04-03T00:22:49;42427.91;;;-141.29;100.00
22025;BME280;11176;51.448;6.650;2023-04-03T00:25:16;42409.94;;;-141.29;100.00
22025;BME280;11176;51.448;6.650;2023-04-03T00:27:43;42417.94;;;-141.29;100.00
22025;BME280;11176;51.448;6.650;2023-04-03T00:30:11;42437.88;;;-141.29;100.00
22025;BME280;11176;51.448;6.650;2023-04-03T00:32:38;42433.91;;;-141.29;100.00
22025;BME280;11176;51.448;6.650;2023-04-03T00:35:05;42469.84;;;-141.29;100.00
22025;BME280;11176;51.448;6.650;2023-04-03T00:37:32;42453.88;;;-141.29;100.00
22025;BME280;11176;51.448;6.650;2023-04-03T00:40:00;42457.84;;;-141.29;100.00
22025;BME280;11176;51.448;6.650;2023-04-03T00:42:27;42453.88;;;-141.29;100.00
22025;BME280;11176;51.448;6.650;2023-04-03T00:47:23;42473.84;;;-141.29;100.00
22025;BME280;11176;51.448;6.650;2023-04-03T00:49:51;42477.81;;;-141.29;100.00
22025;BME280;11176;51.448;6.650;2023-04-03T00:52:21;42449.88;;;-141.29;100.00
22025;BME280;11176;51.448;6.650;2023-04-03T00:54:52;42489.81;;;-141.29;100.00
22025;BME280;11176;51.448;6.650;2023-04-03T00:57:21;42477.81;;;-141.29;100.00
22025;BME280;11176;51.448;6.650;2023-04-03T00:59:52;42455.88;;;-141.29;100.00
22025;BME280;11176;51.448;6.650;2023-04-03T01:02:21;42497.78;;;-141.29;100.00
22025;BME280;11176;51.448;6.650;2023-04-03T01:04:48;42521.75;;;-141.29;100.00
22025;BME280;11176;51.448;6.650;2023-04-03T01:07:22;42497.78;;;-141.29;100.00
22025;BME280;11176;51.448;6.650;2023-04-03T01:09:53;42495.78;;;-141.29;100.00
22025;BME280;11176;51.448;6.650;2023-04-03T01:12:28;42501.78;;;-141.29;100.00
22025;BME280;11176;51.448;6.650;2023-04-03T01:15:04;42521.75;;;-141.29;100.00
22025;BME280;11176;51.448;6.650;2023-04-03T01:17:35;42541.72;;;-141.29;100.00
22025;BME280;11176;51.448;6.650;2023-04-03T01:25:12;42517.75;;;-141.29;100.00
22025;BME280;11176;51.448;6.650;2023-04-03T01:27:38;42533.72;;;-141.29;100.00
22025;BME280;11176;51.448;6.650;2023-04-03T01:30:06;42533.72;;;-141.29;100.00
22025;BME280;11176;51.448;6.650;2023-04-03T01:32:33;42529.75;;;-141.29;100.00
22025;BME280;11176;51.448;6.650;2023-04-03T01:34:59;42509.78;;;-141.29;100.00
22025;BME280;11176;51.448;6.650;2023-04-03T01:37:26;42533.72;;;-141.29;100.00
22025;BME280;11176;51.448;6.650;2023-04-03T01:39:53;42501.78;;;-141.29;100.00
22025;BME280;11176;51.448;6.650;2023-04-03T01:42:19;42551.69;;;-141.29;100.00
22025;BME280;11176;51.448;6.650;2023-04-03T01:44:46;42571.66;;;-141.29;100.00
22025;BME280;11176;51.448;6.650;2023-04-03T01:47:12;42575.66;;;-141.29;100.00
22025;BME280;11176;51.448;6.650;2023-04-03T01:49:39;42577.66;;;-141.29;100.00
22025;BME280;11176;51.448;6.650;2023-04-03T01:52:06;42589.63;;;-141.29;100.00
22025;BME280;11176;51.448;6.650;2023-04-03T01:54:32;42579.66;;;-141.29;100.00
22025;BME280;11176;51.448;6.650;2023-04-03T01:56:59;42553.69;;;-141.29;100.00
22025;BME280;11176;51.448;6.650;2023-04-03T01:59:26;42605.63;;;-141.29;100.00
22025;BME280;11176;51.448;6.650;2023-04-03T02:01:52;42597.63;;;-141.29;100.00
22025;BME280;11176;51.448;6.650;2023-04-03T02:04:19;42563.69;;;-141.29;100.00
22025;BME280;11176;51.448;6.650;2023-04-03T02:06:46;42561.69;;;-141.29;100.00
22025;BME280;11176;51.448;6.650;2023-04-03T02:09:12;42569.66;;;-141.29;100.00
22025;BME280;11176;51.448;6.650;2023-04-03T02:11:39;42569.66;;;-141.29;100.00
22025;BME280;11176;51.448;6.650;2023-04-03T02:14:05;42555.69;;;-141.29;100.00
22025;BME280;11176;51.448;6.650;2023-04-03T02:16:32;42561.69;;;-141.29;100.00
22025;BME280;11176;51.448;6.650;2023-04-03T02:18:59;42549.72;;;-141.29;100.00
22025;BME280;11176;51.448;6.650;2023-04-03T02:21:25;42545.72;;;-141.29;100.00
22025;BME280;11176;51.448;6.650;2023-04-03T02:23:53;42541.72;;;-141.29;100.00
22025;BME280;11176;51.448;6.650;2023-04-03T02:26:19;42533.72;;;-141.29;100.00
22025;BME280;11176;51.448;6.650;2023-04-03T02:28:46;42537.72;;;-141.29;100.00
22025;BME280;11176;51.448;6.650;2023-04-03T02:31:13;42521.75;;;-141.29;100.00
22025;BME280;11176;51.448;6.650;2023-04-03T02:33:42;42533.72;;;-141.29;100.00
22025;BME280;11176;51.448;6.650;2023-04-03T02:36:10;42505.78;;;-141.29;100.00
22025;BME280;11176;51.448;6.650;2023-04-03T02:38:40;42517.75;;;-141.29;100.00
22025;BME280;11176;51.448;6.650;2023-04-03T02:41:10;42527.75;;;-141.29;100.00
22025;BME280;11176;51.448;6.650;2023-04-03T02:43:37;42527.75;;;-141.29;100.00
22025;BME280;11176;51.448;6.650;2023-04-03T02:46:05;42485.81;;;-141.29;100.00
22025;BME280;11176;51.448;6.650;2023-04-03T02:48:32;42509.78;;;-141.29;100.00
22025;BME280;11176;51.448;6.650;2023-04-03T02:50:58;42487.81;;;-141.29;100.00
22025;BME280;11176;51.448;6.650;2023-04-03T02:53:25;42509.78;;;-141.29;100.00
22025;BME280;11176;51.448;6.650;2023-04-03T02:55:51;42469.84;;;-141.29;100.00
22025;BME280;11176;51.448;6.650;2023-04-03T02:58:18;42501.78;;;-141.29;100.00
22025;BME280;11176;51.448;6.650;2023-04-03T03:00:44;42479.81;;;-141.29;100.00
22025;BME280;11176;51.448;6.650;2023-04-03T03:03:11;42469.84;;;-141.29;100.00
22025;BME280;11176;51.448;6.650;2023-04-03T03:05:39;42477.81;;;-141.29;100.00
22025;BME280;11176;51.448;6.650;2023-04-03T03:08:06;42437.88;;;-141.29;100.00
22025;BME280;11176;51.448;6.650;2023-04-03T03:10:32;42471.84;;;-141.29;100.00
22025;BME280;11176;51.448;6.650;2023-04-03T03:12:59;42461.84;;;-141.29;100.00
22025;BME280;11176;51.448;6.650;2023-04-03T03:15:25;42447.88;;;-141.29;100.00
22025;BME280;11176;51.448;6.650;2023-04-03T03:17:52;42453.88;;;-141.29;100.00
22025;BME280;11176;51.448;6.650;2023-04-03T03:20:19;42473.84;;;-141.29;100.00
22025;BME280;11176;51.448;6.650;2023-04-03T03:22:45;42453.88;;;-141.29;100.00
22025;BME280;11176;51.448;6.650;2023-04-03T03:25:12;42437.88;;;-141.29;100.00
22025;BME280;11176;51.448;6.650;2023-04-03T03:27:38;42477.81;;;-141.29;100.00
22025;BME280;11176;51.448;6.650;2023-04-03T03:30:06;42425.91;;;-141.29;100.00
22025;BME280;11176;51.448;6.650;2023-04-03T03:32:33;42409.94;;;-141.29;100.00
22025;BME280;11176;51.448;6.650;2023-04-03T03:35:00;42425.91;;;-141.29;100.00
22025;BME280;11176;51.448;6.650;2023-04-03T03:37:27;42399.97;;;-141.29;100.00
22025;BME280;11176;51.448;6.650;2023-04-03T03:39:54;42413.94;;;-141.29;100.00
22025;BME280;11176;51.448;6.650;2023-04-03T03:42:20;42443.88;;;-141.29;100.00
22025;BME280;11176;51.448;6.650;2023-04-03T03:44:48;42439.88;;;-141.29;100.00
22025;BME280;11176;51.448;6.650;2023-04-03T03:47:14;42425.91;;;-141.29;100.00
22025;BME280;11176;51.448;6.650;2023-04-03T03:49:41;42421.91;;;-141.29;100.00
22025;BME280;11176;51.448;6.650;2023-04-03T03:52:08;42409.94;;;-141.29;100.00
22025;BME280;11176;51.448;6.650;2023-04-03T03:54:37;42429.91;;;-141.29;100.00
22025;BME280;11176;51.448;6.650;2023-04-03T03:57:04;42409.94;;;-141.29;100.00
22025;BME280;11176;51.448;6.650;2023-04-03T03:59:31;42397.97;;;-141.29;100.00
22025;BME280;11176;51.448;6.650;2023-04-03T04:01:57;42411.94;;;-141.29;99.88
22025;BME280;11176;51.448;6.650;2023-04-03T04:04:24;42397.97;;;-141.29;99.72
22025;BME280;11176;51.448;6.650;2023-04-03T04:06:51;42393.97;;;-141.29;99.69
22025;BME280;11176;51.448;6.650;2023-04-03T04:09:18;42405.94;;;-141.29;98.93
22025;BME280;11176;51.448;6.650;2023-04-03T04:11:44;42374.00;;;-141.29;98.19
22025;BME280;11176;51.448;6.650;2023-04-03T04:14:12;42397.97;;;-141.29;98.19
22025;BME280;11176;51.448;6.650;2023-04-03T04:16:41;42374.00;;;-141.29;97.93
22025;BME280;11176;51.448;6.650;2023-04-03T04:19:14;42397.97;;;-141.29;97.79
22025;BME280;11176;51.448;6.650;2023-04-03T04:21:43;42385.97;;;-141.29;97.96
22025;BME280;11176;51.448;6.650;2023-04-03T04:24:09;42348.03;;;-141.29;97.88
22025;BME280;11176;51.448;6.650;2023-04-03T04:26:37;42366.00;;;-141.29;97.80
22025;BME280;11176;51.448;6.650;2023-04-03T04:29:04;42350.03;;;-141.29;98.08
22025;BME280;11176;51.448;6.650;2023-04-03T04:31:33;42370.00;;;-141.29;98.23
22025;BME280;11176;51.448;6.650;2023-04-03T04:34:00;42389.97;;;-141.29;97.86
22025;BME280;11176;51.448;6.650;2023-04-03T04:36:26;42378.00;;;-141.29;97.23
22025;BME280;11176;51.448;6.650;2023-04-03T04:38:53;42338.06;;;-141.29;96.91
22025;BME280;11176;51.448;6.650;2023-04-03T04:41:22;42354.03;;;-141.29;97.09
22025;BME280;11176;51.448;6.650;2023-04-03T04:43:50;42354.03;;;-141.29;97.36
22025;BME280;11176;51.448;6.650;2023-04-03T04:46:17;42336.06;;;-141.29;97.07
22025;BME280;11176;51.448;6.650;2023-04-03T04:48:49;42334.06;;;-141.29;96.87
22025;BME280;11176;51.448;6.650;2023-04-03T04:51:19;42358.03;;;-141.29;96.94
22025;BME280;11176;51.448;6.650;2023-04-03T04:53:45;42344.06;;;-141.29;96.80
22025;BME280;11176;51.448;6.650;2023-04-03T04:56:14;42350.03;;;-141.29;96.94
22025;BME280;11176;51.448;6.650;2023-04-03T04:58:41;42338.06;;;-141.29;96.47
22025;BME280;11176;51.448;6.650;2023-04-03T05:01:10;42342.06;;;-141.29;96.74
22025;BME280;11176;51.448;6.650;2023-04-03T05:03:46;42354.03;;;-141.29;96.81
22025;BME280;11176;51.448;6.650;2023-04-03T05:06:15;42316.09;;;-141.29;97.12
22025;BME280;11176;51.448;6.650;2023-04-03T05:08:41;42316.09;;;-141.29;97.14
22025;BME280;11176;51.448;6.650;2023-04-03T05:11:08;42320.09;;;-141.29;97.03
22025;BME280;11176;51.448;6.650;2023-04-03T05:13:34;42334.06;;;-141.29;97.54
22025;BME280;11176;51.448;6.650;2023-04-03T05:16:01;42298.13;;;-141.29;97.27
22025;BME280;11176;51.448;6.650;2023-04-03T05:18:28;42322.09;;;-141.29;97.01
22025;BME280;11176;51.448;6.650;2023-04-03T05:20:57;42318.09;;;-141.29;96.42
22025;BME280;11176;51.448;6.650;2023-04-03T05:23:26;42334.06;;;-141.29;96.77
22025;BME280;11176;51.448;6.650;2023-04-03T05:25:53;42302.13;;;-141.29;96.42
22025;BME280;11176;51.448;6.650;2023-04-03T05:28:21;42302.13;;;-141.29;96.16
22025;BME280;11176;51.448;6.650;2023-04-03T05:30:55;42302.13;;;-141.29;96.36
22025;BME280;11176;51.448;6.650;2023-04-03T05:33:24;42344.06;;;-141.29;97.72
22025;BME280;11176;51.448;6.650;2023-04-03T05:35:53;42298.13;;;-141.29;98.13
22025;BME280;11176;51.448;6.650;2023-04-03T05:38:25;42308.09;;;-141.29;97.80
22025;BME280;11176;51.448;6.650;2023-04-03T05:40:53;42312.09;;;-141.29;96.88
22025;BME280;11176;51.448;6.650;2023-04-03T05:43:20;42298.13;;;-141.29;97.19
22025;BME280;11176;51.448;6.650;2023-04-03T05:45:48;42298.13;;;-141.29;97.80
22025;BME280;11176;51.448;6.650;2023-04-03T05:48:15;42318.09;;;-141.29;97.36
22025;BME280;11176;51.448;6.650;2023-04-03T05:50:42;42314.09;;;-141.29;97.20
22025;BME280;11176;51.448;6.650;2023-04-03T05:53:18;42316.09;;;-141.29;97.56
22025;BME280;11176;51.448;6.650;2023-04-03T05:55:47;42338.06;;;-141.29;96.97
22025;BME280;11176;51.448;6.650;2023-04-03T05:58:14;42314.09;;;-141.29;97.00
22025;BME280;11176;51.448;6.650;2023-04-03T06:00:42;42290.13;;;-141.29;97.05
22025;BME280;11176;51.448;6.650;2023-04-03T06:03:08;42308.09;;;-141.29;96.94
22025;BME280;11176;51.448;6.650;2023-04-03T06:05:35;42310.09;;;-141.29;97.27
22025;BME280;11176;51.448;6.650;2023-04-03T06:08:02;42310.09;;;-141.29;97.14
22025;BME280;11176;51.448;6.650;2023-04-03T06:10:30;42308.09;;;-141.29;96.18
22025;BME280;11176;51.448;6.650;2023-04-03T06:12:56;42322.09;;;-141.29;95.80
22025;BME280;11176;51.448;6.650;2023-04-03T06:15:23;42290.13;;;-141.29;95.73
22025;BME280;11176;51.448;6.650;2023-04-03T06:17:50;42306.13;;;-141.29;95.67
22025;BME280;11176;51.448;6.650;2023-04-03T06:20:16;42290.13;;;-141.29;95.55
22025;BME280;11176;51.448;6.650;2023-04-03T06:22:43;42290.13;;;-141.29;95.77
22025;BME280;11176;51.448;6.650;2023-04-03T06:25:10;42314.09;;;-141.29;95.28
22025;BME280;11176;51.448;6.650;2023-04-03T06:27:38;42280.16;;;-141.29;95.23
22025;BME280;11176;51.448;6.650;2023-04-03T06:30:06;42282.16;;;-141.29;95.42
22025;BME280;11176;51.448;6.650;2023-04-03T06:32:33;42310.09;;;-141.29;94.88
22025;BME280;11176;51.448;6.650;2023-04-03T06:34:59;42282.16;;;-141.29;94.39
22025;BME280;11176;51.448;6.650;2023-04-03T06:37:26;42290.13;;;-141.29;94.30
22025;BME280;11176;51.448;6.650;2023-04-03T06:39:55;42250.22;;;-141.29;94.45
22025;BME280;11176;51.448;6.650;2023-04-03T06:42:22;42286.16;;;-141.29;93.47
22025;BME280;11176;51.448;6.650;2023-04-03T06:44:58;42288.16;;;-141.29;93.91
22025;BME280;11176;51.448;6.650;2023-04-03T06:47:25;42282.16;;;-141.29;94.06
22025;BME280;11176;51.448;6.650;2023-04-03T06:49:51;42278.16;;;-141.29;93.99
22025;BME280;11176;51.448;6.650;2023-04-03T06:52:18;42284.16;;;-141.29;93.26
22025;BME280;11176;51.448;6.650;2023-04-03T06:54:44;42262.19;;;-141.29;93.52
22025;BME280;11176;51.448;6.650;2023-04-03T06:57:11;42306.13;;;-141.29;93.85
22025;BME280;11176;51.448;6.650;2023-04-03T06:59:37;42300.13;;;-141.29;93.44
22025;BME280;11176;51.448;6.650;2023-04-03T07:02:04;42258.19;;;-141.29;92.88
22025;BME280;11176;51.448;6.650;2023-04-03T07:04:31;42262.19;;;-141.29;93.51
22025;BME280;11176;51.448;6.650;2023-04-03T07:06:57;42262.19;;;-141.29;92.87
22025;BME280;11176;51.448;6.650;2023-04-03T07:09:24;42270.19;;;-141.29;92.10
22025;BME280;11176;51.448;6.650;2023-04-03T07:11:50;42274.16;;;-141.29;91.45
22025;BME280;11176;51.448;6.650;2023-04-03T07:14:18;42264.19;;;-141.29;91.12
22025;BME280;11176;51.448;6.650;2023-04-03T07:16:44;42232.25;;;-141.29;90.47
22025;BME280;11176;51.448;6.650;2023-04-03T07:19:11;42264.19;;;-141.29;90.20
22025;BME280;11176;51.448;6.650;2023-04-03T07:21:37;42246.22;;;-141.29;90.46
22025;BME280;11176;51.448;6.650;2023-04-03T07:24:04;42248.22;;;-141.29;89.96
22025;BME280;11176;51.448;6.650;2023-04-03T07:26:31;42258.19;;;-141.29;90.18
22025;BME280;11176;51.448;6.650;2023-04-03T07:28:58;42256.19;;;-141.29;89.36
22025;BME280;11176;51.448;6.650;2023-04-03T07:31:24;42246.22;;;-141.29;89.13
22025;BME280;11176;51.448;6.650;2023-04-03T07:33:51;42252.22;;;-141.29;88.98
22025;BME280;11176;51.448;6.650;2023-04-03T07:36:20;42232.25;;;-141.29;88.31
22025;BME280;11176;51.448;6.650;2023-04-03T07:38:47;42218.25;;;-141.29;87.49
22025;BME280;11176;51.448;6.650;2023-04-03T07:41:16;42246.22;;;-141.29;86.99
22025;BME280;11176;51.448;6.650;2023-04-03T07:43:44;42202.28;;;-141.29;86.90
22025;BME280;11176;51.448;6.650;2023-04-03T07:46:11;42220.25;;;-141.29;87.10
22025;BME280;11176;51.448;6.650;2023-04-03T07:48:38;42198.31;;;-141.29;85.14
22025;BME280;11176;51.448;6.650;2023-04-03T07:51:05;42188.31;;;-141.29;84.99
22025;BME280;11176;51.448;6.650;2023-04-03T07:53:32;42186.31;;;-141.29;82.90
22025;BME280;11176;51.448;6.650;2023-04-03T07:55:59;42158.38;;;-141.29;83.18
22025;BME280;11176;51.448;6.650;2023-04-03T07:58:26;42154.38;;;-141.29;82.08
22025;BME280;11176;51.448;6.650;2023-04-03T08:00:53;42138.41;;;-141.29;82.12
22025;BME280;11176;51.448;6.650;2023-04-03T08:03:19;42164.34;;;-141.29;82.81
22025;BME280;11176;51.448;6.650;2023-04-03T08:05:48;42152.38;;;-141.29;81.47
22025;BME280;11176;51.448;6.650;2023-04-03T08:08:18;42118.44;;;-141.29;80.89
22025;BME280;11176;51.448;6.650;2023-04-03T08:10:53;42106.47;;;-141.29;78.83
22025;BME280;11176;51.448;6.650;2023-04-03T08:13:21;42086.50;;;-141.29;77.80
22025;BME280;11176;51.448;6.650;2023-04-03T08:15:48;42042.56;;;-141.29;74.16
22025;BME280;11176;51.448;6.650;2023-04-03T08:18:15;42016.63;;;-141.29;73.75
22025;BME280;11176;51.448;6.650;2023-04-03T08:20:42;42000.66;;;-141.29;72.96
22025;BME280;11176;51.448;6.650;2023-04-03T08:23:09;41982.69;;;-141.29;72.31
22025;BME280;11176;51.448;6.650;2023-04-03T08:25:41;41976.69;;;-141.29;73.17
22025;BME280;11176;51.448;6.650;2023-04-03T08:28:08;41946.75;;;-141.29;72.29
22025;BME280;11176;51.448;6.650;2023-04-03T08:30:35;41942.75;;;-141.29;71.00
22025;BME280;11176;51.448;6.650;2023-04-03T08:33:03;41920.78;;;-141.29;70.29
22025;BME280;11176;51.448;6.650;2023-04-03T08:35:29;41884.88;;;-141.29;68.60
22025;BME280;11176;51.448;6.650;2023-04-03T08:37:56;41886.84;;;-141.29;69.01
22025;BME280;11176;51.448;6.650;2023-04-03T08:40:23;41848.94;;;-141.29;67.28
22025;BME280;11176;51.448;6.650;2023-04-03T08:45:43;41834.97;;;-141.29;65.55
22025;BME280;11176;51.448;6.650;2023-04-03T08:48:30;41811.00;;;-141.29;65.36
22025;BME280;11176;51.448;6.650;2023-04-03T08:51:03;41751.13;;;-141.29;63.11
22025;BME280;11176;51.448;6.650;2023-04-03T08:53:40;41731.16;;;-141.29;63.10
22025;BME280;11176;51.448;6.650;2023-04-03T08:56:09;41703.19;;;-141.29;62.30
22025;BME280;11176;51.448;6.650;2023-04-03T08:59:06;41693.22;;;-141.29;60.83
22025;BME280;11176;51.448;6.650;2023-04-03T09:01:39;41659.28;;;-141.29;60.94
22025;BME280;11176;51.448;6.650;2023-04-03T09:04:15;41651.31;;;-141.29;61.24
22025;BME280;11176;51.448;6.650;2023-04-03T09:06:49;41591.41;;;-141.29;56.56
22025;BME280;11176;51.448;6.650;2023-04-03T09:09:40;41521.56;;;-141.29;55.91
22025;BME280;11176;51.448;6.650;2023-04-03T09:12:46;41507.59;;;-141.29;56.37
22025;BME280;11176;51.448;6.650;2023-04-03T09:15:24;41493.59;;;-141.29;55.66
22025;BME280;11176;51.448;6.650;2023-04-03T09:18:15;41463.66;;;-141.29;57.50
22025;BME280;11176;51.448;6.650;2023-04-03T09:23:50;41407.78;;;-141.29;53.84
22025;BME280;11176;51.448;6.650;2023-04-03T09:26:31;41355.88;;;-141.29;52.60
22025;BME280;11176;51.448;6.650;2023-04-03T09:29:06;41355.88;;;-141.29;52.96
22025;BME280;11176;51.448;6.650;2023-04-03T09:31:43;41288.00;;;-141.29;51.04
22025;BME280;11176;51.448;6.650;2023-04-03T09:34:25;41292.00;;;-141.29;51.27
22025;BME280;11176;51.448;6.650;2023-04-03T09:36:54;41220.16;;;-141.29;48.75
22025;BME280;11176;51.448;6.650;2023-04-03T09:39:26;41134.34;;;-141.29;46.52
22025;BME280;11176;51.448;6.650;2023-04-03T09:42:18;41040.53;;;-141.29;45.03
22025;BME280;11176;51.448;6.650;2023-04-03T09:44:55;41080.44;;;-141.29;47.93
22025;BME280;11176;51.448;6.650;2023-04-03T09:52:41;41074.44;;;-141.29;48.59
22025;BME280;11176;51.448;6.650;2023-04-03T09:55:23;41020.56;;;-141.29;46.96
22025;BME280;11176;51.448;6.650;2023-04-03T09:57:54;40962.69;;;-141.29;45.32
22025;BME280;11176;51.448;6.650;2023-04-03T10:00:25;40968.69;;;-141.29;44.88
22025;BME280;11176;51.448;6.650;2023-04-03T10:02:57;40904.81;;;-141.29;43.64
22025;BME280;11176;51.448;6.650;2023-04-03T10:08:19;40892.84;;;-141.29;44.82
22025;BME280;11176;51.448;6.650;2023-04-03T10:10:48;40817.00;;;-141.29;42.25
22025;BME280;11176;51.448;6.650;2023-04-03T10:13:20;40801.03;;;-141.29;42.59
22025;BME280;11176;51.448;6.650;2023-04-03T10:16:03;40705.25;;;-141.29;40.36
22025;BME280;11176;51.448;6.650;2023-04-03T10:18:38;40649.38;;;-141.29;39.48
22025;BME280;11176;51.448;6.650;2023-04-03T10:21:33;40633.41;;;-141.29;40.22
22025;BME280;11176;51.448;6.650;2023-04-03T10:24:11;40577.53;;;-141.29;39.32
22025;BME280;11176;51.448;6.650;2023-04-03T10:30:16;40589.50;;;-141.29;41.91
22025;BME280;11176;51.448;6.650;2023-04-03T10:32:57;40543.59;;;-141.29;40.38
22025;BME280;11176;51.448;6.650;2023-04-03T10:49:31;40489.72;;;-141.29;39.84
22025;BME280;11176;51.448;6.650;2023-04-03T10:52:09;40493.72;;;-141.29;40.07
22025;BME280;11176;51.448;6.650;2023-04-03T10:54:41;40521.66;;;-141.29;39.84
22025;BME280;11176;51.448;6.650;2023-04-03T10:57:10;40509.69;;;-141.29;40.45
22025;BME280;11176;51.448;6.650;2023-04-03T10:59:49;40503.69;;;-141.29;39.81
22025;BME280;11176;51.448;6.650;2023-04-03T11:02:29;40503.69;;;-141.29;40.14
22025;BME280;11176;51.448;6.650;2023-04-03T11:05:04;40501.69;;;-141.29;39.81
22025;BME280;11176;51.448;6.650;2023-04-03T11:07:39;40557.56;;;-141.29;40.58
22025;BME280;11176;51.448;6.650;2023-04-03T11:10:14;40489.72;;;-141.29;38.62
22025;BME280;11176;51.448;6.650;2023-04-03T11:12:53;40549.59;;;-141.29;39.00
22025;BME280;11176;51.448;6.650;2023-04-03T11:15:22;40533.63;;;-141.29;37.86
22025;BME280;11176;51.448;6.650;2023-04-03T11:17:54;40567.53;;;-141.29;37.50
22025;BME280;11176;51.448;6.650;2023-04-03T11:20:32;40521.66;;;-141.29;35.82
22025;BME280;11176;51.448;6.650;2023-04-03T11:23:21;40569.53;;;-141.29;37.08
22025;BME280;11176;51.448;6.650;2023-04-03T11:25:54;40677.31;;;-141.29;37.69
22025;BME280;11176;51.448;6.650;2023-04-03T11:28:22;40753.13;;;-141.29;38.43
22025;BME280;11176;51.448;6.650;2023-04-03T11:34:34;40485.72;;;-141.29;32.51
22025;BME280;11176;51.448;6.650;2023-04-03T11:37:11;40513.66;;;-141.29;34.04
22025;BME280;11176;51.448;6.650;2023-04-03T11:39:41;40477.75;;;-141.29;33.52
22025;BME280;11176;51.448;6.650;2023-04-03T11:42:25;40330.09;;;-141.29;32.13
22025;BME280;11176;51.448;6.650;2023-04-03T11:50:32;40026.81;;;-141.29;31.14
22025;BME280;11176;51.448;6.650;2023-04-03T12:00:49;39659.69;;;-141.29;30.17
22025;BME280;11176;51.448;6.650;2023-04-03T12:05:54;39496.13;;;-141.29;29.37
22025;BME280;11176;51.448;6.650;2023-04-03T12:08:27;39412.31;;;-141.29;28.94
22025;BME280;11176;51.448;6.650;2023-04-03T12:21:16;39037.31;;;-141.29;27.56
22025;BME280;11176;51.448;6.650;2023-04-03T12:26:32;38921.63;;;-141.29;27.10
22025;BME280;11176;51.448;6.650;2023-04-03T12:34:50;38558.63;;;-141.29;25.77
22025;BME280;11176;51.448;6.650;2023-04-03T12:43:14;38369.19;;;-141.29;25.39
22025;BME280;11176;51.448;6.650;2023-04-03T12:45:44;38229.59;;;-141.29;24.56
22025;BME280;11176;51.448;6.650;2023-04-03T12:48:18;38149.81;;;-141.29;24.28
22025;BME280;11176;51.448;6.650;2023-04-03T12:50:48;38080.03;;;-141.29;24.66
22025;BME280;11176;51.448;6.650;2023-04-03T12:53:21;37984.31;;;-141.29;24.35
22025;BME280;11176;51.448;6.650;2023-04-03T12:55:57;37850.72;;;-141.29;23.96
22025;BME280;11176;51.448;6.650;2023-04-03T12:58:43;37836.75;;;-141.29;24.06
22025;BME280;11176;51.448;6.650;2023-04-03T13:01:11;37772.97;;;-141.29;23.98
22025;BME280;11176;51.448;6.650;2023-04-03T13:03:43;37804.84;;;-141.29;24.39
22025;BME280;11176;51.448;6.650;2023-04-03T13:06:17;37665.28;;;-141.29;23.62
22025;BME280;11176;51.448;6.650;2023-04-03T13:08:52;37737.06;;;-141.29;24.35
22025;BME280;11176;51.448;6.650;2023-04-03T13:11:20;37673.25;;;-141.29;24.08
22025;BME280;11176;51.448;6.650;2023-04-03T13:13:55;37633.38;;;-141.29;23.98
22025;BME280;11176;51.448;6.650;2023-04-03T13:16:22;37679.25;;;-141.29;24.18
22025;BME280;11176;51.448;6.650;2023-04-03T13:18:53;37605.47;;;-141.29;23.91
22025;BME280;11176;51.448;6.650;2023-04-03T13:21:24;37591.53;;;-141.29;23.77
22025;BME280;11176;51.448;6.650;2023-04-03T13:23:54;37521.75;;;-141.29;23.46
22025;BME280;11176;51.448;6.650;2023-04-03T13:26:37;37442.00;;;-141.29;23.49
22025;BME280;11176;51.448;6.650;2023-04-03T13:29:07;37438.00;;;-141.29;23.35
22025;BME280;11176;51.448;6.650;2023-04-03T13:31:56;37438.00;;;-141.29;23.48
22025;BME280;11176;51.448;6.650;2023-04-03T13:34:24;37390.16;;;-141.29;23.24
22025;BME280;11176;51.448;6.650;2023-04-03T13:36:58;37422.06;;;-141.29;23.56
22025;BME280;11176;51.448;6.650;2023-04-03T13:39:30;37330.34;;;-141.29;23.28
22025;BME280;11176;51.448;6.650;2023-04-03T13:42:14;37370.22;;;-141.29;23.41
22025;BME280;11176;51.448;6.650;2023-04-03T13:44:42;37346.28;;;-141.29;23.35
22025;BME280;11176;51.448;6.650;2023-04-03T13:49:40;37272.53;;;-141.29;23.21
22025;BME280;11176;51.448;6.650;2023-04-03T13:54:47;37228.66;;;-141.29;22.89
22025;BME280;11176;51.448;6.650;2023-04-03T13:57:17;37138.97;;;-141.29;22.73
22025;BME280;11176;51.448;6.650;2023-04-03T13:59:44;37206.75;;;-141.29;23.02
22025;BME280;11176;51.448;6.650;2023-04-03T14:02:32;37138.97;;;-141.29;22.77
22025;BME280;11176;51.448;6.650;2023-04-03T14:05:01;37132.97;;;-141.29;23.17
22025;BME280;11176;51.448;6.650;2023-04-03T14:07:30;37115.03;;;-141.29;22.71
22025;BME280;11176;51.448;6.650;2023-04-03T14:09:57;37087.13;;;-141.29;22.85
22025;BME280;11176;51.448;6.650;2023-04-03T14:14:57;37067.19;;;-141.29;22.99
22025;BME280;11176;51.448;6.650;2023-04-03T14:17:26;37031.31;;;-141.29;22.87
22025;BME280;11176;51.448;6.650;2023-04-03T14:19:55;36943.59;;;-141.29;22.38
22025;BME280;11176;51.448;6.650;2023-04-03T14:22:27;36979.50;;;-141.29;23.02